createdAt,value
2022-09-03T00:00:00.973Z,56.91
2022-09-03T00:02:51.814Z,56.92
2022-09-03T00:05:47.770Z,58.23
2022-09-03T00:08:32.208Z,58.53
2022-09-03T00:11:33.602Z,57.13
2022-09-03T00:14:16.367Z,57.23
2022-09-03T00:17:02.050Z,57.41
2022-09-03T00:19:36.671Z,57.67
2022-09-03T00:22:15.407Z,57.42
2022-09-03T00:24:47.181Z,57.96
2022-09-03T00:27:19.486Z,56.55
2022-09-03T00:29:59.811Z,56.98
2022-09-03T00:32:58.778Z,56.72
2022-09-03T00:35:37.469Z,57.24
2022-09-03T00:38:08.667Z,57.88
2022-09-03T00:41:09.243Z,56.84
2022-09-03T00:43:42.373Z,57.16
2022-09-03T00:46:32.185Z,56.62
2022-09-03T00:49:20.161Z,55.79
2022-09-03T00:52:05.566Z,56.17
2022-09-03T00:54:51.021Z,56.32
2022-09-03T00:57:25.952Z,56.74
2022-09-03T00:59:58.341Z,56.59
2022-09-03T01:03:06.484Z,56.53
2022-09-03T01:06:04.910Z,56.10
2022-09-03T01:09:13.340Z,55.61
2022-09-03T01:12:00.716Z,55.41
2022-09-03T01:14:56.830Z,55.13
2022-09-03T01:17:27.159Z,55.01
2022-09-03T01:20:21.746Z,55.09
2022-09-03T01:23:09.862Z,55.05
2022-09-03T01:26:18.292Z,54.83
2022-09-03T01:29:09.217Z,54.86
2022-09-03T01:32:23.263Z,54.81
2022-09-03T01:35:12.633Z,54.75
2022-09-03T01:37:48.647Z,54.12
2022-09-03T01:40:33.425Z,54.96
2022-09-03T01:43:24.482Z,54.93
2022-09-03T01:46:21.670Z,54.90
2022-09-03T01:49:00.419Z,54.59
2022-09-03T01:51:32.411Z,54.24
2022-09-03T01:54:21.001Z,54.49
2022-09-03T01:57:04.496Z,54.26
2022-09-03T01:59:50.717Z,53.66
2022-09-03T02:02:26.885Z,53.83
2022-09-03T02:05:19.508Z,54.11
2022-09-03T02:08:11.595Z,53.93
2022-09-03T02:10:55.576Z,53.48
2022-09-03T02:13:40.464Z,53.72
2022-09-03T02:16:18.306Z,53.07
2022-09-03T02:19:03.689Z,53.78
2022-09-03T02:21:40.927Z,52.85
2022-09-03T02:24:11.587Z,53.19
2022-09-03T02:26:41.498Z,53.36
2022-09-03T02:29:13.427Z,51.66
2022-09-03T02:31:43.566Z,53.75
2022-09-03T02:34:13.719Z,52.76
2022-09-03T02:36:49.012Z,52.44
2022-09-03T02:39:19.353Z,52.52
2022-09-03T02:41:57.365Z,52.88
2022-09-03T02:44:34.626Z,53.32
2022-09-03T02:47:09.518Z,52.75
2022-09-03T02:49:40.061Z,53.32
2022-09-03T02:52:13.527Z,52.59
2022-09-03T02:54:46.413Z,52.64
2022-09-03T02:57:23.847Z,52.51
2022-09-03T02:59:58.371Z,52.61
2022-09-03T03:02:28.817Z,52.53
2022-09-03T03:04:59.426Z,52.11
2022-09-03T03:07:33.843Z,52.36
2022-09-03T03:10:04.187Z,52.57
2022-09-03T03:12:33.785Z,53.29
2022-09-03T03:15:04.011Z,52.91
2022-09-03T03:17:34.404Z,52.59
2022-09-03T03:20:04.678Z,51.44
2022-09-03T03:22:34.744Z,52.88
2022-09-03T03:25:04.687Z,52.34
2022-09-03T03:27:34.755Z,52.74
2022-09-03T03:30:04.793Z,53.06
2022-09-03T03:32:34.800Z,52.75
2022-09-03T03:35:05.522Z,52.79
2022-09-03T03:37:37.155Z,52.66
2022-09-03T03:40:08.845Z,52.67
2022-09-03T03:42:39.561Z,52.87
2022-09-03T03:45:13.593Z,53.04
2022-09-03T03:47:43.856Z,52.68
2022-09-03T03:50:13.880Z,51.58
2022-09-03T03:52:45.040Z,51.73
2022-09-03T03:55:15.879Z,52.88
2022-09-03T03:57:47.190Z,53.18
2022-09-03T04:00:18.618Z,52.81
2022-09-03T04:02:48.988Z,52.37
2022-09-03T04:05:23.075Z,52.71
2022-09-03T04:07:54.122Z,52.50
2022-09-03T04:10:24.344Z,52.18
2022-09-03T04:12:57.518Z,52.26
2022-09-03T04:15:27.862Z,52.25
2022-09-03T04:17:57.834Z,52.66
2022-09-03T04:20:27.747Z,51.83
2022-09-03T04:22:57.776Z,52.32
2022-09-03T04:25:27.761Z,52.72
2022-09-03T04:27:57.742Z,52.71
2022-09-03T04:30:29.055Z,52.22
2022-09-03T04:33:01.093Z,52.43
2022-09-03T04:35:33.120Z,52.65
2022-09-03T04:38:06.954Z,52.25
2022-09-03T04:40:37.238Z,52.18
2022-09-03T04:43:10.391Z,52.07
2022-09-03T04:45:41.372Z,51.93
2022-09-03T04:48:13.580Z,52.53
2022-09-03T04:50:44.668Z,53.17
2022-09-03T04:53:15.239Z,52.63
2022-09-03T04:55:46.139Z,52.66
2022-09-03T04:58:16.465Z,53.11
2022-09-03T05:00:47.662Z,52.41
2022-09-03T05:03:19.935Z,52.29
2022-09-03T05:05:58.181Z,52.09
2022-09-03T05:08:28.772Z,51.63
2022-09-03T05:11:02.790Z,52.49
2022-09-03T05:13:34.937Z,52.50
2022-09-03T05:16:08.541Z,51.76
2022-09-03T05:18:39.725Z,51.54
2022-09-03T05:21:15.627Z,51.60
2022-09-03T05:23:48.451Z,51.29
2022-09-03T05:26:22.803Z,51.41
2022-09-03T05:28:58.381Z,51.40
2022-09-03T05:31:32.802Z,50.91
2022-09-03T05:34:07.723Z,51.15
2022-09-03T05:36:40.303Z,51.44
2022-09-03T05:39:10.668Z,51.22
2022-09-03T05:41:41.356Z,51.21
2022-09-03T05:44:11.526Z,51.58
2022-09-03T05:46:41.822Z,51.03
2022-09-03T05:49:13.196Z,51.12
2022-09-03T05:51:45.174Z,52.06
2022-09-03T05:54:15.743Z,50.76
2022-09-03T05:56:46.203Z,50.76
2022-09-03T05:59:16.727Z,50.94
2022-09-03T06:12:23.433Z,50.53
2022-09-03T06:14:54.349Z,49.74
2022-09-03T06:17:26.383Z,50.63
2022-09-03T06:19:56.531Z,50.37
2022-09-03T06:22:29.766Z,50.95
2022-09-03T06:25:00.157Z,50.69
2022-09-03T06:27:32.018Z,50.18
2022-09-03T06:30:02.161Z,50.55
2022-09-03T06:32:33.082Z,50.07
2022-09-03T06:35:03.385Z,50.22
2022-09-03T06:37:33.585Z,50.57
2022-09-03T06:40:04.505Z,50.68
2022-09-03T06:42:35.565Z,50.83
2022-09-03T06:45:08.355Z,51.95
2022-09-03T06:47:43.363Z,51.79
2022-09-03T06:50:13.671Z,52.20
2022-09-03T06:52:43.714Z,52.64
2022-09-03T06:55:13.103Z,53.31
2022-09-03T06:57:43.239Z,53.17
2022-09-03T07:00:14.105Z,53.52
2022-09-03T07:02:45.056Z,53.53
2022-09-03T07:05:18.760Z,54.01
2022-09-03T07:07:49.336Z,53.50
2022-09-03T07:10:22.388Z,53.08
2022-09-03T07:12:52.769Z,53.06
2022-09-03T07:15:23.218Z,53.34
2022-09-03T07:17:53.273Z,53.41
2022-09-03T07:20:23.811Z,53.20
2022-09-03T07:22:58.069Z,52.29
2022-09-03T07:25:28.683Z,52.03
2022-09-03T07:27:59.547Z,52.02
2022-09-03T07:30:30.405Z,52.00
2022-09-03T07:33:05.401Z,51.80
2022-09-03T07:35:39.097Z,51.68
2022-09-03T07:38:10.532Z,51.64
2022-09-03T07:40:41.402Z,52.04
2022-09-03T07:43:12.171Z,51.79
2022-09-03T07:45:43.186Z,52.38
2022-09-03T07:48:14.286Z,52.56
2022-09-03T07:50:46.537Z,52.84
2022-09-03T07:53:18.696Z,52.67
2022-09-03T07:55:50.879Z,51.99
2022-09-03T07:58:25.358Z,52.15
2022-09-03T08:00:58.553Z,52.70
2022-09-03T08:03:29.272Z,54.91
2022-09-03T08:06:06.633Z,57.85
2022-09-03T08:08:38.613Z,59.88
2022-09-03T08:11:13.732Z,62.39
2022-09-03T08:13:47.036Z,64.34
2022-09-03T08:16:21.107Z,63.98
2022-09-03T08:18:52.541Z,64.03
2022-09-03T08:21:23.254Z,66.44
2022-09-03T08:23:54.326Z,65.89
2022-09-03T08:26:25.176Z,68.64
2022-09-03T08:28:55.419Z,67.46
2022-09-03T08:31:30.465Z,66.16
2022-09-03T08:34:07.852Z,67.25
2022-09-03T08:36:40.692Z,67.23
2022-09-03T08:39:13.199Z,66.47
2022-09-03T08:41:53.553Z,65.84
2022-09-03T08:44:33.350Z,66.28
2022-09-03T08:47:22.282Z,62.28
2022-09-03T08:50:00.503Z,65.43
2022-09-03T08:52:34.080Z,66.01
2022-09-03T08:55:46.028Z,64.88
2022-09-03T08:58:24.809Z,66.89
2022-09-03T09:01:03.414Z,64.64
2022-09-03T09:03:44.980Z,64.59
2022-09-03T09:06:33.300Z,63.67
2022-09-03T09:09:21.057Z,63.86
2022-09-03T09:12:18.209Z,63.78
2022-09-03T09:15:09.335Z,65.32
2022-09-03T09:17:42.225Z,66.60
2022-09-03T09:20:25.226Z,66.25
2022-09-03T09:23:10.487Z,66.31
2022-09-03T09:25:51.395Z,65.87
2022-09-03T09:28:31.071Z,65.32
2022-09-03T09:31:05.907Z,64.79
2022-09-03T09:33:37.068Z,65.48
2022-09-03T09:36:13.018Z,63.37
2022-09-03T09:38:44.482Z,66.60
2022-09-03T09:41:23.377Z,64.97
2022-09-03T09:44:07.101Z,64.23
2022-09-03T09:46:43.463Z,64.32
2022-09-03T09:49:46.402Z,63.99
2022-09-03T09:52:19.062Z,66.73
2022-09-03T09:54:49.615Z,67.50
2022-09-03T09:57:27.474Z,66.92
2022-09-03T10:00:14.722Z,65.17
2022-09-03T10:02:54.551Z,66.17
2022-09-03T10:05:41.869Z,67.56
2022-09-03T10:08:23.235Z,66.79
2022-09-03T10:10:53.760Z,66.99
2022-09-03T10:13:41.759Z,67.12
2022-09-03T10:16:36.325Z,64.03
2022-09-03T10:19:08.897Z,68.77
2022-09-03T10:22:02.607Z,67.79
2022-09-03T10:24:49.939Z,68.63
2022-09-03T10:27:20.200Z,68.61
2022-09-03T10:29:51.577Z,67.19
2022-09-03T10:32:38.002Z,67.50
2022-09-03T10:35:30.647Z,65.01
2022-09-03T10:38:21.914Z,64.13
2022-09-03T10:41:26.439Z,65.73
2022-09-03T10:44:07.692Z,67.86
2022-09-03T10:47:15.877Z,66.02
2022-09-03T10:50:02.891Z,67.94
2022-09-03T10:53:08.366Z,68.51
2022-09-03T10:55:53.062Z,68.08
2022-09-03T10:58:26.468Z,66.82
2022-09-03T11:01:04.638Z,66.30
2022-09-03T11:03:58.255Z,64.86
2022-09-03T11:06:32.124Z,67.92
2022-09-03T11:09:41.166Z,65.06
2022-09-03T11:12:56.974Z,63.94
2022-09-03T11:16:13.785Z,65.89
2022-09-03T11:19:13.335Z,63.97
2022-09-03T11:21:45.257Z,66.69
2022-09-03T11:24:18.300Z,65.84
2022-09-03T11:26:58.359Z,65.58
2022-09-03T11:29:43.107Z,65.39
2022-09-03T11:32:23.120Z,65.30
2022-09-03T11:34:55.877Z,66.68
2022-09-03T11:37:25.885Z,67.48
2022-09-03T11:40:09.955Z,66.15
2022-09-03T11:42:45.785Z,66.05
2022-09-03T11:45:25.214Z,65.91
2022-09-03T11:47:56.220Z,67.61
2022-09-03T11:53:13.819Z,67.04
2022-09-03T11:56:17.787Z,64.83
2022-09-03T11:59:01.467Z,67.17
2022-09-03T12:01:33.701Z,67.61
2022-09-03T12:04:08.277Z,66.68
2022-09-03T12:07:00.632Z,66.31
2022-09-03T12:10:01.419Z,65.16
2022-09-03T12:12:47.252Z,65.94
2022-09-03T12:15:29.840Z,65.27
2022-09-03T12:18:22.178Z,65.38
2022-09-03T12:20:59.930Z,65.95
2022-09-03T12:23:51.556Z,66.51
2022-09-03T12:26:28.667Z,63.59
2022-09-03T12:29:01.126Z,66.56
2022-09-03T12:31:40.050Z,66.38
2022-09-03T12:34:16.491Z,66.58
2022-09-03T12:36:47.609Z,67.58
2022-09-03T12:42:33.028Z,66.13
2022-09-03T12:45:17.128Z,65.94
2022-09-03T12:47:47.330Z,67.76
2022-09-03T12:50:20.055Z,67.73
2022-09-03T12:53:01.362Z,66.77
2022-09-03T12:55:48.848Z,65.40
2022-09-03T12:58:20.573Z,64.45
2022-09-03T13:00:59.972Z,66.68
2022-09-03T13:04:04.376Z,65.99
2022-09-03T13:07:02.309Z,67.00
2022-09-03T13:09:35.607Z,67.93
2022-09-03T13:12:07.166Z,70.63
2022-09-03T13:14:50.679Z,67.23
2022-09-03T13:17:22.912Z,68.35
2022-09-03T13:20:24.327Z,66.14
2022-09-03T13:23:08.064Z,66.89
2022-09-03T13:25:48.181Z,68.16
2022-09-03T13:28:52.950Z,65.75
2022-09-03T13:31:41.113Z,68.04
2022-09-03T13:34:24.095Z,67.21
2022-09-03T13:37:00.688Z,68.14
2022-09-03T13:39:45.771Z,67.75
2022-09-03T13:42:29.187Z,66.45
2022-09-03T13:45:24.382Z,66.05
2022-09-03T13:48:45.740Z,65.88
2022-09-03T13:51:20.674Z,67.24
2022-09-03T13:54:36.387Z,66.08
2022-09-03T13:57:20.369Z,65.90
2022-09-03T14:00:05.094Z,66.80
2022-09-03T14:02:58.525Z,65.76
2022-09-03T14:05:50.508Z,65.85
2022-09-03T14:09:04.612Z,65.48
2022-09-03T14:11:59.722Z,66.41
2022-09-03T14:14:43.925Z,67.93
2022-09-03T14:17:40.048Z,65.17
2022-09-03T14:20:16.066Z,67.73
2022-09-03T14:22:59.018Z,66.82
2022-09-03T14:25:30.344Z,68.00
2022-09-03T14:28:39.950Z,65.64
2022-09-03T14:31:11.243Z,67.91
2022-09-03T14:33:41.712Z,67.71
2022-09-03T14:36:46.346Z,66.55
2022-09-03T14:39:57.726Z,65.36
2022-09-03T14:43:03.242Z,65.68
2022-09-03T14:45:40.521Z,67.90
2022-09-03T14:48:26.204Z,66.29
2022-09-03T14:51:25.881Z,66.12
2022-09-03T14:54:31.196Z,66.55
2022-09-03T14:57:33.457Z,66.15
2022-09-03T15:00:19.954Z,67.84
2022-09-03T15:02:57.116Z,66.63
2022-09-03T15:06:05.245Z,65.87
2022-09-03T15:09:17.308Z,66.24
2022-09-03T15:11:57.166Z,66.82
2022-09-03T15:14:58.966Z,65.77
2022-09-03T15:17:37.787Z,67.65
2022-09-03T15:20:14.228Z,68.30
2022-09-03T15:22:59.665Z,67.90
2022-09-03T15:25:45.703Z,66.31
2022-09-03T15:28:37.466Z,66.42
2022-09-03T15:31:30.889Z,66.07
2022-09-03T15:34:06.766Z,67.46
2022-09-03T15:36:52.112Z,66.68
2022-09-03T15:39:35.717Z,66.95
2022-09-03T15:42:31.733Z,66.18
2022-09-03T15:45:19.078Z,66.86
2022-09-03T15:47:56.034Z,68.44
2022-09-03T15:50:38.458Z,68.33
2022-09-03T15:53:28.224Z,66.68
2022-09-03T15:56:30.426Z,66.60
2022-09-03T15:59:24.312Z,67.51
2022-09-03T16:02:17.540Z,66.40
2022-09-03T16:04:57.682Z,66.91
2022-09-03T16:08:11.935Z,66.12
2022-09-03T16:11:20.183Z,66.39
2022-09-03T16:14:06.835Z,68.10
2022-09-03T16:17:01.659Z,66.28
2022-09-03T16:20:05.550Z,65.91
2022-09-03T16:22:45.341Z,68.23
2022-09-03T16:25:56.721Z,66.56
2022-09-03T16:28:48.790Z,66.21
2022-09-03T16:31:38.082Z,66.67
2022-09-03T16:34:25.343Z,67.05
2022-09-03T16:37:06.350Z,67.11
2022-09-03T16:40:26.976Z,66.57
2022-09-03T16:43:39.258Z,67.19
2022-09-03T16:46:39.579Z,66.18
2022-09-03T16:49:38.132Z,66.30
2022-09-03T16:52:15.054Z,67.94
2022-09-03T16:55:20.410Z,66.37
2022-09-03T16:58:24.528Z,66.39
2022-09-03T17:01:07.100Z,67.31
2022-09-03T17:04:11.895Z,67.44
2022-09-03T17:06:49.941Z,66.92
2022-09-03T17:09:54.244Z,66.42
2022-09-03T17:13:13.284Z,65.86
2022-09-03T17:15:51.670Z,67.78
2022-09-03T17:18:24.713Z,67.47
2022-09-03T17:21:20.336Z,66.51
2022-09-03T17:24:27.749Z,66.29
2022-09-03T17:27:47.910Z,66.01
2022-09-03T17:30:23.927Z,67.17
2022-09-03T17:33:10.333Z,66.27
2022-09-03T17:35:56.248Z,66.33
2022-09-03T17:39:04.342Z,66.00
2022-09-03T17:41:54.564Z,67.48
2022-09-03T17:44:27.331Z,68.03
2022-09-03T17:47:00.275Z,67.85
2022-09-03T17:50:03.617Z,66.07
2022-09-03T17:53:18.928Z,65.78
2022-09-03T17:56:25.628Z,66.56
2022-09-03T17:59:12.628Z,66.31
2022-09-03T18:02:10.378Z,67.11
2022-09-03T18:04:56.270Z,65.72
2022-09-03T18:07:33.743Z,66.65
2022-09-03T18:10:22.159Z,66.57
2022-09-03T18:13:14.298Z,67.41
2022-09-03T18:16:11.336Z,66.60
2022-09-03T18:18:48.972Z,67.32
2022-09-03T18:21:48.917Z,66.81
2022-09-03T18:25:01.493Z,66.76
2022-09-03T18:28:10.175Z,66.62
2022-09-03T18:30:58.524Z,68.02
2022-09-03T18:33:47.600Z,68.25
2022-09-03T18:36:35.908Z,68.25
2022-09-03T18:39:46.753Z,66.93
2022-09-03T18:43:11.182Z,66.40
2022-09-03T18:47:16.483Z,65.70
2022-09-03T18:49:39.292Z,68.12
2022-09-03T18:52:38.295Z,67.30
2022-09-03T18:55:40.441Z,67.30
2022-09-03T18:58:49.456Z,67.86
2022-09-03T19:01:52.079Z,68.09
2022-09-03T19:05:15.039Z,66.38
2022-09-03T19:08:07.228Z,68.34
2022-09-03T19:11:09.943Z,67.39
2022-09-03T19:14:01.378Z,68.14
2022-09-03T19:17:08.304Z,67.14
2022-09-03T19:20:10.522Z,67.92
2022-09-03T19:23:01.153Z,68.38
2022-09-03T19:25:50.816Z,68.67
2022-09-03T19:28:49.126Z,67.82
2022-09-03T19:31:55.857Z,67.72
2022-09-03T19:35:09.177Z,68.02
2022-09-03T19:38:38.293Z,67.63
2022-09-03T19:41:47.329Z,67.44
2022-09-03T19:44:49.704Z,67.42
2022-09-03T19:47:52.934Z,67.63
2022-09-03T19:50:47.905Z,68.17
2022-09-03T19:53:37.701Z,68.41
2022-09-03T19:56:42.428Z,67.39
2022-09-03T19:59:38.760Z,68.05
2022-09-03T20:02:27.078Z,68.21
2022-09-03T20:05:31.370Z,66.92
2022-09-03T20:08:21.283Z,68.31
2022-09-03T20:10:55.213Z,67.83
2022-09-03T20:13:25.691Z,67.99
2022-09-03T20:16:25.220Z,66.51
2022-09-03T20:19:13.536Z,66.74
2022-09-03T20:21:51.284Z,67.61
2022-09-03T20:24:30.305Z,67.06
2022-09-03T20:27:28.510Z,67.03
2022-09-03T20:30:05.711Z,67.10
2022-09-03T20:32:55.778Z,66.97
2022-09-03T20:36:08.132Z,66.95
2022-09-03T20:38:59.870Z,66.53
2022-09-03T20:41:59.018Z,67.66
2022-09-03T20:44:50.598Z,67.21
2022-09-03T20:47:46.833Z,66.53
2022-09-03T20:50:45.332Z,66.43
2022-09-03T20:53:44.542Z,66.91
2022-09-03T20:56:53.686Z,66.18
2022-09-03T20:59:48.079Z,66.25
2022-09-03T21:02:42.950Z,67.06
2022-09-03T21:05:13.195Z,68.07
2022-09-03T21:07:46.806Z,67.19
2022-09-03T21:10:34.127Z,66.46
2022-09-03T21:13:25.047Z,66.53
2022-09-03T21:16:16.527Z,66.80
2022-09-03T21:19:01.788Z,67.00
2022-09-03T21:22:02.280Z,68.27
2022-09-03T21:25:01.420Z,67.07
2022-09-03T21:27:41.589Z,66.68
2022-09-03T21:30:16.483Z,66.87
2022-09-03T21:33:04.760Z,66.15
2022-09-03T21:36:01.633Z,65.73
2022-09-03T21:38:36.197Z,66.31
2022-09-03T21:41:08.935Z,66.13
2022-09-03T21:44:07.498Z,65.52
2022-09-03T21:47:01.649Z,65.90
2022-09-03T21:49:40.480Z,66.24
2022-09-03T21:52:28.381Z,65.63
2022-09-03T21:54:58.393Z,66.59
2022-09-03T21:57:59.904Z,65.44
2022-09-03T22:00:33.910Z,66.83
2022-09-03T22:03:11.807Z,66.25
2022-09-03T22:06:09.719Z,65.36
2022-09-03T22:08:56.081Z,65.78
2022-09-03T22:11:46.820Z,67.18
2022-09-03T22:14:22.463Z,68.13
2022-09-03T22:17:05.924Z,65.96
2022-09-03T22:19:38.802Z,66.58
2022-09-03T22:22:14.610Z,65.36
2022-09-03T22:25:06.021Z,64.82
2022-09-03T22:28:02.058Z,65.72
2022-09-03T22:30:42.363Z,65.64
2022-09-03T22:33:41.802Z,65.14
2022-09-03T22:36:22.825Z,65.65
2022-09-03T22:39:17.046Z,64.61
2022-09-03T22:42:34.231Z,65.00
2022-09-03T22:45:41.990Z,64.80
2022-09-03T22:48:24.274Z,65.76
2022-09-03T22:51:00.629Z,65.64
2022-09-03T22:54:07.693Z,65.23
2022-09-03T22:56:42.455Z,65.86
2022-09-03T22:59:24.166Z,65.51
2022-09-03T23:02:13.260Z,65.09
2022-09-03T23:05:00.658Z,65.72
2022-09-03T23:08:08.029Z,64.92
2022-09-03T23:10:45.297Z,66.04
2022-09-03T23:13:32.969Z,65.27
2022-09-03T23:16:25.567Z,65.39
2022-09-03T23:18:56.026Z,65.54
2022-09-03T23:21:55.385Z,64.67
2022-09-03T23:24:36.970Z,65.21
2022-09-03T23:27:12.487Z,65.15
2022-09-03T23:29:50.541Z,65.77
2022-09-03T23:32:20.898Z,65.82
2022-09-03T23:34:51.588Z,65.11
2022-09-03T23:37:35.913Z,64.85
2022-09-03T23:40:15.057Z,65.16
2022-09-03T23:42:51.125Z,65.08
2022-09-03T23:45:44.989Z,64.55
2022-09-03T23:48:38.880Z,64.81
2022-09-03T23:51:40.579Z,64.27
2022-09-03T23:54:41.129Z,64.04
2022-09-03T23:57:34.647Z,63.84
